sensor_id;sensor_type;location;lat;lon;timestamp;temperature;humidity
21184;DHT22;18176;49.502;11.754;2023-04-01T00:00:35;7.40;99.90
21184;DHT22;18176;49.502;11.754;2023-04-01T00:04:35;7.40;99.90
21184;DHT22;18176;49.502;11.754;2023-04-01T00:08:39;7.40;99.90
21184;DHT22;18176;49.502;11.754;2023-04-01T00:12:39;7.40;99.90
21184;DHT22;18176;49.502;11.754;2023-04-01T00:16:41;7.40;99.90
21184;DHT22;18176;49.502;11.754;2023-04-01T00:20:44;7.40;99.90
21184;DHT22;18176;49.502;11.754;2023-04-01T00:24:48;7.40;99.90
21184;DHT22;18176;49.502;11.754;2023-04-01T00:28:48;7.40;99.90
21184;DHT22;18176;49.502;11.754;2023-04-01T00:32:51;7.40;99.90
21184;DHT22;18176;49.502;11.754;2023-04-01T00:36:53;7.50;99.90
21184;DHT22;18176;49.502;11.754;2023-04-01T00:40:57;7.50;99.90
21184;DHT22;18176;49.502;11.754;2023-04-01T00:44:58;7.50;99.90
21184;DHT22;18176;49.502;11.754;2023-04-01T00:49:20;7.50;99.90
21184;DHT22;18176;49.502;11.754;2023-04-01T00:53:25;7.40;99.90
21184;DHT22;18176;49.502;11.754;2023-04-01T00:57:35;7.50;99.90
21184;DHT22;18176;49.502;11.754;2023-04-01T01:01:38;7.50;99.90
21184;DHT22;18176;49.502;11.754;2023-04-01T01:05:53;7.60;99.90
21184;DHT22;18176;49.502;11.754;2023-04-01T01:10:22;7.60;99.90
21184;DHT22;18176;49.502;11.754;2023-04-01T01:14:36;7.60;99.90
21184;DHT22;18176;49.502;11.754;2023-04-01T01:18:50;7.60;99.90
21184;DHT22;18176;49.502;11.754;2023-04-01T01:27:58;7.70;99.90
21184;DHT22;18176;49.502;11.754;2023-04-01T01:32:20;7.70;99.90
21184;DHT22;18176;49.502;11.754;2023-04-01T01:36:37;7.70;99.90
21184;DHT22;18176;49.502;11.754;2023-04-01T01:40:44;7.70;99.90
21184;DHT22;18176;49.502;11.754;2023-04-01T01:44:50;7.70;99.90
21184;DHT22;18176;49.502;11.754;2023-04-01T01:48:54;7.70;99.90
21184;DHT22;18176;49.502;11.754;2023-04-01T01:53:10;7.60;99.90
21184;DHT22;18176;49.502;11.754;2023-04-01T01:57:12;7.60;99.90
21184;DHT22;18176;49.502;11.754;2023-04-01T02:01:19;7.50;99.90
21184;DHT22;18176;49.502;11.754;2023-04-01T02:05:27;7.50;99.90
21184;DHT22;18176;49.502;11.754;2023-04-01T02:09:39;7.40;99.90
21184;DHT22;18176;49.502;11.754;2023-04-01T02:13:45;7.40;99.90
21184;DHT22;18176;49.502;11.754;2023-04-01T02:17:51;7.30;99.90
21184;DHT22;18176;49.502;11.754;2023-04-01T02:21:57;7.30;99.90
21184;DHT22;18176;49.502;11.754;2023-04-01T02:26:06;7.30;99.90
21184;DHT22;18176;49.502;11.754;2023-04-01T02:30:12;7.30;99.90
21184;DHT22;18176;49.502;11.754;2023-04-01T02:34:14;7.30;99.90
21184;DHT22;18176;49.502;11.754;2023-04-01T02:38:16;7.10;99.90
21184;DHT22;18176;49.502;11.754;2023-04-01T02:42:19;7.00;99.90
21184;DHT22;18176;49.502;11.754;2023-04-01T02:46:19;7.00;99.90
21184;DHT22;18176;49.502;11.754;2023-04-01T02:50:20;7.00;99.90
21184;DHT22;18176;49.502;11.754;2023-04-01T02:54:20;6.90;99.90
21184;DHT22;18176;49.502;11.754;2023-04-01T02:58:24;7.00;99.90
21184;DHT22;18176;49.502;11.754;2023-04-01T03:02:25;7.00;99.90
21184;DHT22;18176;49.502;11.754;2023-04-01T03:06:25;7.00;99.90
21184;DHT22;18176;49.502;11.754;2023-04-01T03:10:26;7.10;99.90
21184;DHT22;18176;49.502;11.754;2023-04-01T03:14:29;7.10;99.90
21184;DHT22;18176;49.502;11.754;2023-04-01T03:18:30;7.20;99.90
21184;DHT22;18176;49.502;11.754;2023-04-01T03:22:30;7.20;99.90
21184;DHT22;18176;49.502;11.754;2023-04-01T03:26:31;7.30;99.90
21184;DHT22;18176;49.502;11.754;2023-04-01T03:30:34;7.20;99.90
21184;DHT22;18176;49.502;11.754;2023-04-01T03:34:35;7.30;99.90
21184;DHT22;18176;49.502;11.754;2023-04-01T03:38:36;7.30;99.90
21184;DHT22;18176;49.502;11.754;2023-04-01T03:42:37;7.30;99.90
21184;DHT22;18176;49.502;11.754;2023-04-01T03:46:40;7.40;99.90
21184;DHT22;18176;49.502;11.754;2023-04-01T03:50:41;7.40;99.90
21184;DHT22;18176;49.502;11.754;2023-04-01T03:54:42;7.50;99.90
21184;DHT22;18176;49.502;11.754;2023-04-01T03:58:43;7.50;99.90
21184;DHT22;18176;49.502;11.754;2023-04-01T04:02:46;7.50;99.90
21184;DHT22;18176;49.502;11.754;2023-04-01T04:06:53;7.40;99.90
21184;DHT22;18176;49.502;11.754;2023-04-01T04:10:55;7.50;99.90
21184;DHT22;18176;49.502;11.754;2023-04-01T04:14:56;7.50;99.90
21184;DHT22;18176;49.502;11.754;2023-04-01T04:19:00;7.50;99.90
21184;DHT22;18176;49.502;11.754;2023-04-01T04:23:01;7.50;99.90
21184;DHT22;18176;49.502;11.754;2023-04-01T04:27:01;7.60;99.90
21184;DHT22;18176;49.502;11.754;2023-04-01T04:31:04;7.50;99.90
21184;DHT22;18176;49.502;11.754;2023-04-01T04:35:09;7.60;99.90
21184;DHT22;18176;49.502;11.754;2023-04-01T04:39:10;7.60;99.90
21184;DHT22;18176;49.502;11.754;2023-04-01T04:43:14;7.50;99.90
21184;DHT22;18176;49.502;11.754;2023-04-01T04:47:15;7.50;99.90
21184;DHT22;18176;49.502;11.754;2023-04-01T04:51:20;7.50;99.90
21184;DHT22;18176;49.502;11.754;2023-04-01T04:55:21;7.50;99.90
21184;DHT22;18176;49.502;11.754;2023-04-01T04:59:42;7.50;99.90
21184;DHT22;18176;49.502;11.754;2023-04-01T05:03:49;7.50;99.90
21184;DHT22;18176;49.502;11.754;2023-04-01T05:07:52;7.50;99.90
21184;DHT22;18176;49.502;11.754;2023-04-01T05:11:54;7.50;99.90
21184;DHT22;18176;49.502;11.754;2023-04-01T05:15:56;7.60;99.90
21184;DHT22;18176;49.502;11.754;2023-04-01T05:19:57;7.60;99.90
21184;DHT22;18176;49.502;11.754;2023-04-01T05:24:01;7.40;99.90
21184;DHT22;18176;49.502;11.754;2023-04-01T05:28:02;7.30;99.90
21184;DHT22;18176;49.502;11.754;2023-04-01T05:32:03;7.30;99.90
21184;DHT22;18176;49.502;11.754;2023-04-01T05:36:09;7.20;99.90
21184;DHT22;18176;49.502;11.754;2023-04-01T05:40:14;7.20;99.90
21184;DHT22;18176;49.502;11.754;2023-04-01T05:44:15;7.20;99.90
21184;DHT22;18176;49.502;11.754;2023-04-01T05:48:36;7.20;99.90
21184;DHT22;18176;49.502;11.754;2023-04-01T05:52:38;7.30;99.90
21184;DHT22;18176;49.502;11.754;2023-04-01T05:56:42;7.30;99.90
21184;DHT22;18176;49.502;11.754;2023-04-01T06:00:44;7.30;99.90
21184;DHT22;18176;49.502;11.754;2023-04-01T06:05:10;7.30;99.90
21184;DHT22;18176;49.502;11.754;2023-04-01T06:09:16;7.40;99.90
21184;DHT22;18176;49.502;11.754;2023-04-01T06:13:36;7.40;99.90
21184;DHT22;18176;49.502;11.754;2023-04-01T06:18:35;7.40;99.90
21184;DHT22;18176;49.502;11.754;2023-04-01T06:23:04;7.40;99.90
21184;DHT22;18176;49.502;11.754;2023-04-01T06:27:27;7.50;99.90
21184;DHT22;18176;49.502;11.754;2023-04-01T06:37:11;7.70;99.90
21184;DHT22;18176;49.502;11.754;2023-04-01T06:41:41;7.80;99.90
21184;DHT22;18176;49.502;11.754;2023-04-01T06:46:06;8.00;99.90
21184;DHT22;18176;49.502;11.754;2023-04-01T06:50:49;8.10;99.90
21184;DHT22;18176;49.502;11.754;2023-04-01T06:55:30;8.00;99.90
21184;DHT22;18176;49.502;11.754;2023-04-01T07:00:14;8.00;99.90
21184;DHT22;18176;49.502;11.754;2023-04-01T07:04:23;8.10;99.90
21184;DHT22;18176;49.502;11.754;2023-04-01T07:08:34;8.10;99.90
21184;DHT22;18176;49.502;11.754;2023-04-01T07:12:43;8.10;99.90
21184;DHT22;18176;49.502;11.754;2023-04-01T07:16:59;8.10;99.90
21184;DHT22;18176;49.502;11.754;2023-04-01T07:21:13;8.40;99.90
21184;DHT22;18176;49.502;11.754;2023-04-01T07:25:30;8.50;99.90
21184;DHT22;18176;49.502;11.754;2023-04-01T07:30:14;8.70;99.90
21184;DHT22;18176;49.502;11.754;2023-04-01T07:34:19;8.80;99.90
21184;DHT22;18176;49.502;11.754;2023-04-01T07:38:31;8.90;99.90
21184;DHT22;18176;49.502;11.754;2023-04-01T07:43:00;9.10;99.90
21184;DHT22;18176;49.502;11.754;2023-04-01T07:52:12;9.40;99.90
21184;DHT22;18176;49.502;11.754;2023-04-01T07:56:30;9.60;99.90
21184;DHT22;18176;49.502;11.754;2023-04-01T08:00:49;9.70;99.90
21184;DHT22;18176;49.502;11.754;2023-04-01T08:05:10;9.50;99.90
21184;DHT22;18176;49.502;11.754;2023-04-01T08:09:26;9.70;99.90
21184;DHT22;18176;49.502;11.754;2023-04-01T08:14:01;10.00;99.90
21184;DHT22;18176;49.502;11.754;2023-04-01T08:18:38;10.00;99.90
21184;DHT22;18176;49.502;11.754;2023-04-01T08:22:50;9.80;99.90
21184;DHT22;18176;49.502;11.754;2023-04-01T08:27:03;9.80;99.90
21184;DHT22;18176;49.502;11.754;2023-04-01T08:31:13;9.60;99.90
21184;DHT22;18176;49.502;11.754;2023-04-01T08:35:27;9.40;99.90
21184;DHT22;18176;49.502;11.754;2023-04-01T08:39:39;9.40;99.90
21184;DHT22;18176;49.502;11.754;2023-04-01T08:44:19;9.50;99.90
21184;DHT22;18176;49.502;11.754;2023-04-01T08:48:56;9.50;99.90
21184;DHT22;18176;49.502;11.754;2023-04-01T08:53:20;9.60;99.90
21184;DHT22;18176;49.502;11.754;2023-04-01T08:57:41;9.80;99.90
21184;DHT22;18176;49.502;11.754;2023-04-01T09:07:16;10.00;99.90
21184;DHT22;18176;49.502;11.754;2023-04-01T09:11:46;10.20;99.90
21184;DHT22;18176;49.502;11.754;2023-04-01T09:20:57;10.60;99.90
21184;DHT22;18176;49.502;11.754;2023-04-01T09:25:32;10.50;99.90
21184;DHT22;18176;49.502;11.754;2023-04-01T09:30:32;10.30;99.90
21184;DHT22;18176;49.502;11.754;2023-04-01T09:34:52;10.70;99.90
21184;DHT22;18176;49.502;11.754;2023-04-01T09:39:04;10.90;99.90
21184;DHT22;18176;49.502;11.754;2023-04-01T09:43:30;11.00;99.90
21184;DHT22;18176;49.502;11.754;2023-04-01T09:48:08;11.00;99.90
21184;DHT22;18176;49.502;11.754;2023-04-01T09:52:26;11.00;99.90
21184;DHT22;18176;49.502;11.754;2023-04-01T09:57:16;11.00;99.90
21184;DHT22;18176;49.502;11.754;2023-04-01T10:06:57;11.00;99.90
21184;DHT22;18176;49.502;11.754;2023-04-01T10:16:32;11.40;99.90
21184;DHT22;18176;49.502;11.754;2023-04-01T10:21:11;10.80;99.90
21184;DHT22;18176;49.502;11.754;2023-04-01T10:26:01;10.60;99.90
21184;DHT22;18176;49.502;11.754;2023-04-01T10:46:28;10.60;99.90
21184;DHT22;18176;49.502;11.754;2023-04-01T10:51:11;10.50;99.90
21184;DHT22;18176;49.502;11.754;2023-04-01T10:55:32;10.50;99.90
21184;DHT22;18176;49.502;11.754;2023-04-01T11:00:32;10.40;99.90
21184;DHT22;18176;49.502;11.754;2023-04-01T11:05:56;10.30;99.90
21184;DHT22;18176;49.502;11.754;2023-04-01T11:15:41;9.80;99.90
21184;DHT22;18176;49.502;11.754;2023-04-01T11:20:24;9.90;99.90
21184;DHT22;18176;49.502;11.754;2023-04-01T11:25:07;10.00;99.90
21184;DHT22;18176;49.502;11.754;2023-04-01T11:30:14;10.30;99.90
21184;DHT22;18176;49.502;11.754;2023-04-01T11:34:59;10.30;99.90
21184;DHT22;18176;49.502;11.754;2023-04-01T11:39:22;10.30;99.90
21184;DHT22;18176;49.502;11.754;2023-04-01T11:44:09;10.70;99.90
21184;DHT22;18176;49.502;11.754;2023-04-01T11:48:54;10.60;99.90
21184;DHT22;18176;49.502;11.754;2023-04-01T11:53:31;10.40;99.90
21184;DHT22;18176;49.502;11.754;2023-04-01T11:57:56;9.80;99.90
21184;DHT22;18176;49.502;11.754;2023-04-01T12:02:29;9.80;99.90
21184;DHT22;18176;49.502;11.754;2023-04-01T12:06:51;9.90;99.90
21184;DHT22;18176;49.502;11.754;2023-04-01T12:11:11;9.70;99.90
21184;DHT22;18176;49.502;11.754;2023-04-01T12:15:25;9.30;99.90
21184;DHT22;18176;49.502;11.754;2023-04-01T12:19:41;9.00;99.90
21184;DHT22;18176;49.502;11.754;2023-04-01T12:24:14;9.00;99.90
21184;DHT22;18176;49.502;11.754;2023-04-01T12:28:44;9.10;99.90
21184;DHT22;18176;49.502;11.754;2023-04-01T12:32:55;9.40;99.90
21184;DHT22;18176;49.502;11.754;2023-04-01T12:37:13;9.70;99.90
21184;DHT22;18176;49.502;11.754;2023-04-01T12:41:26;9.40;99.90
21184;DHT22;18176;49.502;11.754;2023-04-01T12:45:39;9.10;99.90
21184;DHT22;18176;49.502;11.754;2023-04-01T12:49:56;8.80;99.90
21184;DHT22;18176;49.502;11.754;2023-04-01T12:54:29;8.70;99.90
21184;DHT22;18176;49.502;11.754;2023-04-01T12:59:13;8.60;99.90
21184;DHT22;18176;49.502;11.754;2023-04-01T13:03:48;8.60;99.90
21184;DHT22;18176;49.502;11.754;2023-04-01T13:08:18;8.60;99.90
21184;DHT22;18176;49.502;11.754;2023-04-01T13:12:44;8.80;99.90
21184;DHT22;18176;49.502;11.754;2023-04-01T13:17:02;9.00;99.90
21184;DHT22;18176;49.502;11.754;2023-04-01T13:21:18;9.00;99.90
21184;DHT22;18176;49.502;11.754;2023-04-01T13:25:32;9.20;99.90
21184;DHT22;18176;49.502;11.754;2023-04-01T13:29:41;9.40;99.90
21184;DHT22;18176;49.502;11.754;2023-04-01T13:33:50;9.40;99.90
21184;DHT22;18176;49.502;11.754;2023-04-01T13:43:07;8.90;99.90
21184;DHT22;18176;49.502;11.754;2023-04-01T13:52:23;8.90;99.90
21184;DHT22;18176;49.502;11.754;2023-04-01T13:56:45;8.90;99.90
21184;DHT22;18176;49.502;11.754;2023-04-01T14:01:05;8.70;99.90
21184;DHT22;18176;49.502;11.754;2023-04-01T14:05:29;8.60;99.90
21184;DHT22;18176;49.502;11.754;2023-04-01T14:09:49;8.70;99.90
21184;DHT22;18176;49.502;11.754;2023-04-01T14:14:11;8.50;99.90
21184;DHT22;18176;49.502;11.754;2023-04-01T14:18:33;8.50;99.90
21184;DHT22;18176;49.502;11.754;2023-04-01T14:22:51;8.60;99.90
21184;DHT22;18176;49.502;11.754;2023-04-01T14:31:50;8.90;99.90
21184;DHT22;18176;49.502;11.754;2023-04-01T14:36:29;9.10;99.90
21184;DHT22;18176;49.502;11.754;2023-04-01T14:40:56;9.20;99.90
21184;DHT22;18176;49.502;11.754;2023-04-01T14:45:25;9.10;99.90
21184;DHT22;18176;49.502;11.754;2023-04-01T14:49:43;9.00;99.90
21184;DHT22;18176;49.502;11.754;2023-04-01T14:53:59;8.90;99.90
21184;DHT22;18176;49.502;11.754;2023-04-01T14:58:09;8.90;99.90
21184;DHT22;18176;49.502;11.754;2023-04-01T15:02:27;9.00;99.90
21184;DHT22;18176;49.502;11.754;2023-04-01T15:07:00;9.10;99.90
21184;DHT22;18176;49.502;11.754;2023-04-01T15:11:26;9.20;99.90
21184;DHT22;18176;49.502;11.754;2023-04-01T15:15:47;9.20;99.90
21184;DHT22;18176;49.502;11.754;2023-04-01T15:20:15;9.30;99.90
21184;DHT22;18176;49.502;11.754;2023-04-01T15:24:34;9.30;99.90
21184;DHT22;18176;49.502;11.754;2023-04-01T15:28:53;9.10;99.90
21184;DHT22;18176;49.502;11.754;2023-04-01T15:33:20;8.90;99.90
21184;DHT22;18176;49.502;11.754;2023-04-01T15:37:45;8.80;99.90
21184;DHT22;18176;49.502;11.754;2023-04-01T15:42:16;8.70;99.90
21184;DHT22;18176;49.502;11.754;2023-04-01T15:46:41;8.90;99.90
21184;DHT22;18176;49.502;11.754;2023-04-01T15:50:54;8.90;99.90
21184;DHT22;18176;49.502;11.754;2023-04-01T15:55:16;8.90;99.90
21184;DHT22;18176;49.502;11.754;2023-04-01T15:59:52;8.80;99.90
21184;DHT22;18176;49.502;11.754;2023-04-01T16:09:12;8.60;99.90
21184;DHT22;18176;49.502;11.754;2023-04-01T16:13:44;8.60;99.90
21184;DHT22;18176;49.502;11.754;2023-04-01T16:18:13;8.50;99.90
21184;DHT22;18176;49.502;11.754;2023-04-01T16:22:31;8.40;99.90
21184;DHT22;18176;49.502;11.754;2023-04-01T16:26:38;8.40;99.90
21184;DHT22;18176;49.502;11.754;2023-04-01T16:30:46;8.40;99.90
21184;DHT22;18176;49.502;11.754;2023-04-01T16:35:15;8.50;99.90
21184;DHT22;18176;49.502;11.754;2023-04-01T16:39:30;8.40;99.90
21184;DHT22;18176;49.502;11.754;2023-04-01T16:43:41;8.40;99.90
21184;DHT22;18176;49.502;11.754;2023-04-01T16:47:49;8.30;99.90
21184;DHT22;18176;49.502;11.754;2023-04-01T16:52:04;8.30;99.90
21184;DHT22;18176;49.502;11.754;2023-04-01T16:56:20;8.20;99.90
21184;DHT22;18176;49.502;11.754;2023-04-01T17:00:25;8.10;99.90
21184;DHT22;18176;49.502;11.754;2023-04-01T17:04:33;8.10;99.90
21184;DHT22;18176;49.502;11.754;2023-04-01T17:08:51;8.10;99.90
21184;DHT22;18176;49.502;11.754;2023-04-01T17:13:24;8.10;99.90
21184;DHT22;18176;49.502;11.754;2023-04-01T17:17:47;8.00;99.90
21184;DHT22;18176;49.502;11.754;2023-04-01T17:22:07;7.90;99.90
21184;DHT22;18176;49.502;11.754;2023-04-01T17:26:27;7.80;99.90
21184;DHT22;18176;49.502;11.754;2023-04-01T17:30:37;7.80;99.90
21184;DHT22;18176;49.502;11.754;2023-04-01T17:34:54;7.80;99.90
21184;DHT22;18176;49.502;11.754;2023-04-01T17:39:17;7.70;99.90
21184;DHT22;18176;49.502;11.754;2023-04-01T17:43:39;7.70;99.90
21184;DHT22;18176;49.502;11.754;2023-04-01T17:47:55;7.60;99.90
21184;DHT22;18176;49.502;11.754;2023-04-01T17:52:09;7.60;99.90
21184;DHT22;18176;49.502;11.754;2023-04-01T17:56:28;7.60;99.90
21184;DHT22;18176;49.502;11.754;2023-04-01T18:05:43;7.60;99.90
21184;DHT22;18176;49.502;11.754;2023-04-01T18:10:00;7.60;99.90
21184;DHT22;18176;49.502;11.754;2023-04-01T18:19:09;7.50;99.90
21184;DHT22;18176;49.502;11.754;2023-04-01T18:23:26;7.60;99.90
21184;DHT22;18176;49.502;11.754;2023-04-01T18:27:37;7.50;99.90
21184;DHT22;18176;49.502;11.754;2023-04-01T18:31:43;7.50;99.90
21184;DHT22;18176;49.502;11.754;2023-04-01T18:35:53;7.50;99.90
21184;DHT22;18176;49.502;11.754;2023-04-01T18:40:13;7.50;99.90
21184;DHT22;18176;49.502;11.754;2023-04-01T18:44:34;7.50;99.90
21184;DHT22;18176;49.502;11.754;2023-04-01T18:48:51;7.40;99.90
21184;DHT22;18176;49.502;11.754;2023-04-01T18:53:12;7.40;99.90
21184;DHT22;18176;49.502;11.754;2023-04-01T18:57:19;7.50;99.90
21184;DHT22;18176;49.502;11.754;2023-04-01T19:01:25;7.40;99.90
21184;DHT22;18176;49.502;11.754;2023-04-01T19:05:34;7.40;99.90
21184;DHT22;18176;49.502;11.754;2023-04-01T19:09:47;7.40;99.90
21184;DHT22;18176;49.502;11.754;2023-04-01T19:13:57;7.40;99.90
21184;DHT22;18176;49.502;11.754;2023-04-01T19:18:23;7.40;99.90
21184;DHT22;18176;49.502;11.754;2023-04-01T19:22:44;7.40;99.90
21184;DHT22;18176;49.502;11.754;2023-04-01T19:27:10;7.40;99.90
21184;DHT22;18176;49.502;11.754;2023-04-01T19:31:32;7.40;99.90
21184;DHT22;18176;49.502;11.754;2023-04-01T19:35:44;7.40;99.90
21184;DHT22;18176;49.502;11.754;2023-04-01T19:39:59;7.40;99.90
21184;DHT22;18176;49.502;11.754;2023-04-01T19:44:28;7.30;99.90
21184;DHT22;18176;49.502;11.754;2023-04-01T19:48:48;7.30;99.90
21184;DHT22;18176;49.502;11.754;2023-04-01T19:53:11;7.40;99.90
21184;DHT22;18176;49.502;11.754;2023-04-01T19:57:25;7.40;99.90
21184;DHT22;18176;49.502;11.754;2023-04-01T20:01:41;7.30;99.90
21184;DHT22;18176;49.502;11.754;2023-04-01T20:05:56;7.30;99.90
21184;DHT22;18176;49.502;11.754;2023-04-01T20:10:10;7.30;99.90
21184;DHT22;18176;49.502;11.754;2023-04-01T20:14:24;7.40;99.90
21184;DHT22;18176;49.502;11.754;2023-04-01T20:18:54;7.40;99.90
21184;DHT22;18176;49.502;11.754;2023-04-01T20:23:26;7.30;99.90
21184;DHT22;18176;49.502;11.754;2023-04-01T20:27:41;7.30;99.90
21184;DHT22;18176;49.502;11.754;2023-04-01T20:31:55;7.30;99.90
21184;DHT22;18176;49.502;11.754;2023-04-01T20:36:15;7.30;99.90
21184;DHT22;18176;49.502;11.754;2023-04-01T20:40:28;7.30;99.90
21184;DHT22;18176;49.502;11.754;2023-04-01T20:44:36;7.40;99.90
21184;DHT22;18176;49.502;11.754;2023-04-01T20:53:29;7.40;99.90
21184;DHT22;18176;49.502;11.754;2023-04-01T20:57:41;7.40;99.90
21184;DHT22;18176;49.502;11.754;2023-04-01T21:01:57;7.40;99.90
21184;DHT22;18176;49.502;11.754;2023-04-01T21:06:25;7.40;99.90
21184;DHT22;18176;49.502;11.754;2023-04-01T21:10:47;7.40;99.90
21184;DHT22;18176;49.502;11.754;2023-04-01T21:15:11;7.40;99.90
21184;DHT22;18176;49.502;11.754;2023-04-01T21:19:40;7.40;99.90
21184;DHT22;18176;49.502;11.754;2023-04-01T21:28:50;7.40;99.90
21184;DHT22;18176;49.502;11.754;2023-04-01T21:33:27;7.30;99.90
21184;DHT22;18176;49.502;11.754;2023-04-01T21:37:47;7.40;99.90
21184;DHT22;18176;49.502;11.754;2023-04-01T21:42:10;7.30;99.90
21184;DHT22;18176;49.502;11.754;2023-04-01T21:51:48;7.30;99.90
21184;DHT22;18176;49.502;11.754;2023-04-01T22:01:34;7.30;99.90
21184;DHT22;18176;49.502;11.754;2023-04-01T22:06:08;7.40;99.90
21184;DHT22;18176;49.502;11.754;2023-04-01T22:10:22;7.30;99.90
21184;DHT22;18176;49.502;11.754;2023-04-01T22:14:33;7.30;99.90
21184;DHT22;18176;49.502;11.754;2023-04-01T22:18:45;7.30;99.90
21184;DHT22;18176;49.502;11.754;2023-04-01T22:23:01;7.30;99.90
21184;DHT22;18176;49.502;11.754;2023-04-01T22:27:20;7.30;99.90
21184;DHT22;18176;49.502;11.754;2023-04-01T22:31:27;7.30;99.90
21184;DHT22;18176;49.502;11.754;2023-04-01T22:35:40;7.30;99.90
21184;DHT22;18176;49.502;11.754;2023-04-01T22:40:03;7.30;99.90
21184;DHT22;18176;49.502;11.754;2023-04-01T22:44:28;7.20;99.90
21184;DHT22;18176;49.502;11.754;2023-04-01T22:48:44;7.20;99.90
21184;DHT22;18176;49.502;11.754;2023-04-01T22:52:56;7.20;99.90
21184;DHT22;18176;49.502;11.754;2023-04-01T22:57:11;7.20;99.90
21184;DHT22;18176;49.502;11.754;2023-04-01T23:01:21;7.20;99.90
21184;DHT22;18176;49.502;11.754;2023-04-01T23:05:29;7.20;99.90
21184;DHT22;18176;49.502;11.754;2023-04-01T23:09:33;7.20;99.90
21184;DHT22;18176;49.502;11.754;2023-04-01T23:13:43;7.20;99.90
21184;DHT22;18176;49.502;11.754;2023-04-01T23:18:00;7.20;99.90
21184;DHT22;18176;49.502;11.754;2023-04-01T23:22:16;7.10;99.90
21184;DHT22;18176;49.502;11.754;2023-04-01T23:26:31;7.10;99.90
21184;DHT22;18176;49.502;11.754;2023-04-01T23:30:51;7.10;99.90
21184;DHT22;18176;49.502;11.754;2023-04-01T23:34:53;7.10;99.90
21184;DHT22;18176;49.502;11.754;2023-04-01T23:39:03;7.10;99.90
21184;DHT22;18176;49.502;11.754;2023-04-01T23:43:13;7.10;99.90
21184;DHT22;18176;49.502;11.754;2023-04-01T23:47:20;7.20;99.90
21184;DHT22;18176;49.502;11.754;2023-04-01T23:51:26;7.10;99.90
21184;DHT22;18176;49.502;11.754;2023-04-01T23:55:31;7.10;99.90
21184;DHT22;18176;49.502;11.754;2023-04-01T23:59:35;7.10;99.90
